sensor_id;sensor_type;location;lat;lon;timestamp;temperature;humidity
610;DHT22;292;48.800;9.216;2023-01-05T00:01:46;13.00;76.20
610;DHT22;292;48.800;9.216;2023-01-05T00:04:13;13.00;76.40
610;DHT22;292;48.800;9.216;2023-01-05T00:06:40;13.00;76.10
610;DHT22;292;48.800;9.216;2023-01-05T00:09:09;13.00;76.20
610;DHT22;292;48.800;9.216;2023-01-05T00:11:37;13.00;76.10
610;DHT22;292;48.800;9.216;2023-01-05T00:14:24;13.00;76.10
610;DHT22;292;48.800;9.216;2023-01-05T00:17:10;13.00;76.10
610;DHT22;292;48.800;9.216;2023-01-05T00:19:55;13.00;76.20
610;DHT22;292;48.800;9.216;2023-01-05T00:22:52;13.00;76.10
610;DHT22;292;48.800;9.216;2023-01-05T00:25:21;13.00;76.10
610;DHT22;292;48.800;9.216;2023-01-05T00:27:50;13.10;76.10
610;DHT22;292;48.800;9.216;2023-01-05T00:30:21;13.10;76.10
610;DHT22;292;48.800;9.216;2023-01-05T00:32:49;13.10;76.10
610;DHT22;292;48.800;9.216;2023-01-05T00:35:16;13.10;76.10
610;DHT22;292;48.800;9.216;2023-01-05T00:37:43;13.10;76.00
610;DHT22;292;48.800;9.216;2023-01-05T00:40:12;13.10;76.10
610;DHT22;292;48.800;9.216;2023-01-05T00:42:39;13.10;76.20
610;DHT22;292;48.800;9.216;2023-01-05T00:45:09;13.10;76.10
610;DHT22;292;48.800;9.216;2023-01-05T00:47:37;13.10;76.10
610;DHT22;292;48.800;9.216;2023-01-05T00:50:06;13.10;76.10
610;DHT22;292;48.800;9.216;2023-01-05T00:52:33;13.10;76.10
610;DHT22;292;48.800;9.216;2023-01-05T00:55:00;13.10;76.10
610;DHT22;292;48.800;9.216;2023-01-05T00:57:27;13.10;76.20
610;DHT22;292;48.800;9.216;2023-01-05T00:59:54;13.10;76.20
610;DHT22;292;48.800;9.216;2023-01-05T01:02:21;13.10;76.40
610;DHT22;292;48.800;9.216;2023-01-05T01:04:49;13.10;76.40
610;DHT22;292;48.800;9.216;2023-01-05T01:07:16;13.20;76.40
610;DHT22;292;48.800;9.216;2023-01-05T01:09:43;13.10;76.40
610;DHT22;292;48.800;9.216;2023-01-05T01:12:10;13.20;76.50
610;DHT22;292;48.800;9.216;2023-01-05T01:14:37;13.20;76.50
610;DHT22;292;48.800;9.216;2023-01-05T01:17:05;13.20;76.50
610;DHT22;292;48.800;9.216;2023-01-05T01:19:32;13.20;76.50
610;DHT22;292;48.800;9.216;2023-01-05T01:22:01;13.20;76.50
610;DHT22;292;48.800;9.216;2023-01-05T01:24:28;13.20;76.50
610;DHT22;292;48.800;9.216;2023-01-05T01:26:55;13.20;76.50
610;DHT22;292;48.800;9.216;2023-01-05T01:29:23;13.20;76.50
610;DHT22;292;48.800;9.216;2023-01-05T01:31:51;13.20;76.50
610;DHT22;292;48.800;9.216;2023-01-05T01:34:19;13.30;76.50
610;DHT22;292;48.800;9.216;2023-01-05T01:36:46;13.30;76.50
610;DHT22;292;48.800;9.216;2023-01-05T01:39:14;13.20;76.50
610;DHT22;292;48.800;9.216;2023-01-05T01:41:42;13.20;76.70
610;DHT22;292;48.800;9.216;2023-01-05T01:47:25;13.30;76.70
610;DHT22;292;48.800;9.216;2023-01-05T01:49:55;13.20;76.50
610;DHT22;292;48.800;9.216;2023-01-05T01:52:25;13.20;76.70
610;DHT22;292;48.800;9.216;2023-01-05T01:54:55;13.30;76.70
610;DHT22;292;48.800;9.216;2023-01-05T01:57:24;13.30;76.70
610;DHT22;292;48.800;9.216;2023-01-05T01:59:52;13.20;76.80
610;DHT22;292;48.800;9.216;2023-01-05T02:02:20;13.30;76.70
610;DHT22;292;48.800;9.216;2023-01-05T02:04:48;13.30;76.50
610;DHT22;292;48.800;9.216;2023-01-05T02:07:16;13.30;76.70
610;DHT22;292;48.800;9.216;2023-01-05T02:09:43;13.30;76.70
610;DHT22;292;48.800;9.216;2023-01-05T02:12:22;13.30;76.80
610;DHT22;292;48.800;9.216;2023-01-05T02:14:59;13.30;76.80
610;DHT22;292;48.800;9.216;2023-01-05T02:17:36;13.30;76.80
610;DHT22;292;48.800;9.216;2023-01-05T02:20:33;13.20;77.00
610;DHT22;292;48.800;9.216;2023-01-05T02:23:30;13.20;77.10
610;DHT22;292;48.800;9.216;2023-01-05T02:29:32;13.20;77.30
610;DHT22;292;48.800;9.216;2023-01-05T02:32:10;13.20;77.30
610;DHT22;292;48.800;9.216;2023-01-05T02:34:43;13.20;77.30
610;DHT22;292;48.800;9.216;2023-01-05T02:37:16;13.20;77.40
610;DHT22;292;48.800;9.216;2023-01-05T02:39:49;13.20;77.50
610;DHT22;292;48.800;9.216;2023-01-05T02:42:18;13.20;77.50
610;DHT22;292;48.800;9.216;2023-01-05T02:44:46;13.20;77.50
610;DHT22;292;48.800;9.216;2023-01-05T02:47:46;13.30;77.40
610;DHT22;292;48.800;9.216;2023-01-05T02:50:16;13.30;77.40
610;DHT22;292;48.800;9.216;2023-01-05T02:52:52;13.30;77.40
610;DHT22;292;48.800;9.216;2023-01-05T02:55:26;13.30;77.50
610;DHT22;292;48.800;9.216;2023-01-05T02:57:58;13.30;77.50
610;DHT22;292;48.800;9.216;2023-01-05T03:00:31;13.30;77.70
610;DHT22;292;48.800;9.216;2023-01-05T03:03:04;13.30;77.70
610;DHT22;292;48.800;9.216;2023-01-05T03:05:35;13.30;77.70
610;DHT22;292;48.800;9.216;2023-01-05T03:08:05;13.30;77.80
610;DHT22;292;48.800;9.216;2023-01-05T03:10:56;13.30;77.80
610;DHT22;292;48.800;9.216;2023-01-05T03:13:45;13.30;77.80
610;DHT22;292;48.800;9.216;2023-01-05T03:16:17;13.30;78.00
610;DHT22;292;48.800;9.216;2023-01-05T03:18:48;13.30;78.10
610;DHT22;292;48.800;9.216;2023-01-05T03:21:34;13.30;78.10
610;DHT22;292;48.800;9.216;2023-01-05T03:24:19;13.30;78.40
610;DHT22;292;48.800;9.216;2023-01-05T03:27:04;13.30;78.30
610;DHT22;292;48.800;9.216;2023-01-05T03:29:51;13.30;78.30
610;DHT22;292;48.800;9.216;2023-01-05T03:32:37;13.30;78.30
610;DHT22;292;48.800;9.216;2023-01-05T03:35:26;13.30;78.30
610;DHT22;292;48.800;9.216;2023-01-05T03:37:59;13.30;78.30
610;DHT22;292;48.800;9.216;2023-01-05T03:40:30;13.30;78.40
610;DHT22;292;48.800;9.216;2023-01-05T03:42:57;13.30;78.30
610;DHT22;292;48.800;9.216;2023-01-05T03:45:30;13.40;78.40
610;DHT22;292;48.800;9.216;2023-01-05T03:47:58;13.40;78.40
610;DHT22;292;48.800;9.216;2023-01-05T03:50:26;13.40;78.40
610;DHT22;292;48.800;9.216;2023-01-05T03:52:54;13.40;78.30
610;DHT22;292;48.800;9.216;2023-01-05T03:55:21;13.40;78.40
610;DHT22;292;48.800;9.216;2023-01-05T03:57:48;13.40;78.40
610;DHT22;292;48.800;9.216;2023-01-05T04:00:15;13.50;78.40
610;DHT22;292;48.800;9.216;2023-01-05T04:02:42;13.50;78.40
610;DHT22;292;48.800;9.216;2023-01-05T04:05:09;13.50;78.40
610;DHT22;292;48.800;9.216;2023-01-05T04:07:41;13.50;78.40
610;DHT22;292;48.800;9.216;2023-01-05T04:10:08;13.50;78.40
610;DHT22;292;48.800;9.216;2023-01-05T04:12:35;13.60;78.40
610;DHT22;292;48.800;9.216;2023-01-05T04:15:02;13.60;78.40
610;DHT22;292;48.800;9.216;2023-01-05T04:17:29;13.60;78.40
610;DHT22;292;48.800;9.216;2023-01-05T04:19:57;13.60;78.40
610;DHT22;292;48.800;9.216;2023-01-05T04:22:23;13.60;78.40
610;DHT22;292;48.800;9.216;2023-01-05T04:24:52;13.70;78.60
610;DHT22;292;48.800;9.216;2023-01-05T04:27:19;13.70;78.60
610;DHT22;292;48.800;9.216;2023-01-05T04:29:46;13.70;78.60
610;DHT22;292;48.800;9.216;2023-01-05T04:32:12;13.70;78.60
610;DHT22;292;48.800;9.216;2023-01-05T04:34:39;13.70;78.70
610;DHT22;292;48.800;9.216;2023-01-05T04:37:06;13.70;78.70
610;DHT22;292;48.800;9.216;2023-01-05T04:39:33;13.70;78.70
610;DHT22;292;48.800;9.216;2023-01-05T04:42:02;13.70;78.60
610;DHT22;292;48.800;9.216;2023-01-05T04:44:29;13.70;78.60
610;DHT22;292;48.800;9.216;2023-01-05T04:46:56;13.80;78.60
610;DHT22;292;48.800;9.216;2023-01-05T04:49:23;13.80;78.60
610;DHT22;292;48.800;9.216;2023-01-05T04:51:51;13.80;78.40
610;DHT22;292;48.800;9.216;2023-01-05T04:54:18;13.80;78.40
610;DHT22;292;48.800;9.216;2023-01-05T04:56:45;13.80;78.40
610;DHT22;292;48.800;9.216;2023-01-05T04:59:14;13.90;78.30
610;DHT22;292;48.800;9.216;2023-01-05T05:01:41;13.90;78.30
610;DHT22;292;48.800;9.216;2023-01-05T05:04:08;13.90;78.10
610;DHT22;292;48.800;9.216;2023-01-05T05:06:35;13.90;78.10
610;DHT22;292;48.800;9.216;2023-01-05T05:09:02;13.90;78.10
610;DHT22;292;48.800;9.216;2023-01-05T05:11:30;13.90;78.00
610;DHT22;292;48.800;9.216;2023-01-05T05:13:57;13.90;78.00
610;DHT22;292;48.800;9.216;2023-01-05T05:16:25;14.00;77.70
610;DHT22;292;48.800;9.216;2023-01-05T05:18:52;14.00;77.80
610;DHT22;292;48.800;9.216;2023-01-05T05:21:19;14.00;77.70
610;DHT22;292;48.800;9.216;2023-01-05T05:23:46;14.00;77.70
610;DHT22;292;48.800;9.216;2023-01-05T05:26:13;14.00;77.70
610;DHT22;292;48.800;9.216;2023-01-05T05:28:40;14.00;77.80
610;DHT22;292;48.800;9.216;2023-01-05T05:31:07;14.00;78.00
610;DHT22;292;48.800;9.216;2023-01-05T05:33:35;14.00;78.30
610;DHT22;292;48.800;9.216;2023-01-05T05:36:03;14.00;78.60
610;DHT22;292;48.800;9.216;2023-01-05T05:38:30;14.00;78.80
610;DHT22;292;48.800;9.216;2023-01-05T05:40:57;14.00;79.10
610;DHT22;292;48.800;9.216;2023-01-05T05:43:24;14.00;79.30
610;DHT22;292;48.800;9.216;2023-01-05T05:45:51;13.90;79.60
610;DHT22;292;48.800;9.216;2023-01-05T05:48:18;13.90;79.60
610;DHT22;292;48.800;9.216;2023-01-05T05:50:46;13.90;79.40
610;DHT22;292;48.800;9.216;2023-01-05T05:53:14;13.80;79.30
610;DHT22;292;48.800;9.216;2023-01-05T05:55:40;13.80;79.10
610;DHT22;292;48.800;9.216;2023-01-05T05:58:07;13.80;78.70
610;DHT22;292;48.800;9.216;2023-01-05T06:00:34;13.80;77.70
610;DHT22;292;48.800;9.216;2023-01-05T06:03:01;13.80;77.00
610;DHT22;292;48.800;9.216;2023-01-05T06:05:28;13.70;76.20
610;DHT22;292;48.800;9.216;2023-01-05T06:07:57;13.70;75.80
610;DHT22;292;48.800;9.216;2023-01-05T06:10:24;13.60;75.70
610;DHT22;292;48.800;9.216;2023-01-05T06:12:52;13.60;75.70
610;DHT22;292;48.800;9.216;2023-01-05T06:15:19;13.50;75.70
610;DHT22;292;48.800;9.216;2023-01-05T06:17:46;13.50;75.80
610;DHT22;292;48.800;9.216;2023-01-05T06:20:14;13.40;76.20
610;DHT22;292;48.800;9.216;2023-01-05T06:22:42;13.30;77.10
610;DHT22;292;48.800;9.216;2023-01-05T06:25:10;13.20;78.30
610;DHT22;292;48.800;9.216;2023-01-05T06:27:37;13.20;79.10
610;DHT22;292;48.800;9.216;2023-01-05T06:30:05;13.10;79.70
610;DHT22;292;48.800;9.216;2023-01-05T06:32:32;13.00;80.40
610;DHT22;292;48.800;9.216;2023-01-05T06:34:59;12.90;81.30
610;DHT22;292;48.800;9.216;2023-01-05T06:37:26;12.90;81.70
610;DHT22;292;48.800;9.216;2023-01-05T06:39:53;12.80;82.40
610;DHT22;292;48.800;9.216;2023-01-05T06:42:22;12.70;82.80
610;DHT22;292;48.800;9.216;2023-01-05T06:44:49;12.70;83.20
610;DHT22;292;48.800;9.216;2023-01-05T06:47:16;12.60;83.60
610;DHT22;292;48.800;9.216;2023-01-05T06:49:43;12.60;83.80
610;DHT22;292;48.800;9.216;2023-01-05T06:52:10;12.60;84.10
610;DHT22;292;48.800;9.216;2023-01-05T06:54:37;12.60;83.90
610;DHT22;292;48.800;9.216;2023-01-05T06:57:04;12.60;83.90
610;DHT22;292;48.800;9.216;2023-01-05T06:59:33;12.60;83.90
610;DHT22;292;48.800;9.216;2023-01-05T07:01:59;12.60;84.40
610;DHT22;292;48.800;9.216;2023-01-05T07:04:26;12.50;84.50
610;DHT22;292;48.800;9.216;2023-01-05T07:06:53;12.60;84.70
610;DHT22;292;48.800;9.216;2023-01-05T07:09:20;12.50;84.80
610;DHT22;292;48.800;9.216;2023-01-05T07:11:47;12.50;84.90
610;DHT22;292;48.800;9.216;2023-01-05T07:14:15;12.50;84.90
610;DHT22;292;48.800;9.216;2023-01-05T07:16:43;12.50;85.10
610;DHT22;292;48.800;9.216;2023-01-05T07:19:10;12.50;84.90
610;DHT22;292;48.800;9.216;2023-01-05T07:21:37;12.50;84.90
610;DHT22;292;48.800;9.216;2023-01-05T07:24:05;12.50;84.90
610;DHT22;292;48.800;9.216;2023-01-05T07:26:32;12.60;84.90
610;DHT22;292;48.800;9.216;2023-01-05T07:29:00;12.60;84.90
610;DHT22;292;48.800;9.216;2023-01-05T07:31:50;12.60;84.80
610;DHT22;292;48.800;9.216;2023-01-05T07:34:26;12.60;84.50
610;DHT22;292;48.800;9.216;2023-01-05T07:36:53;12.60;84.20
610;DHT22;292;48.800;9.216;2023-01-05T07:39:20;12.70;84.10
610;DHT22;292;48.800;9.216;2023-01-05T07:41:47;12.70;84.10
610;DHT22;292;48.800;9.216;2023-01-05T07:44:14;12.70;83.90
610;DHT22;292;48.800;9.216;2023-01-05T07:46:42;12.70;83.80
610;DHT22;292;48.800;9.216;2023-01-05T07:49:11;12.80;83.90
610;DHT22;292;48.800;9.216;2023-01-05T07:51:38;12.80;83.80
610;DHT22;292;48.800;9.216;2023-01-05T07:54:05;12.90;83.60
610;DHT22;292;48.800;9.216;2023-01-05T07:56:32;12.90;83.50
610;DHT22;292;48.800;9.216;2023-01-05T07:58:59;12.90;83.20
610;DHT22;292;48.800;9.216;2023-01-05T08:01:26;12.90;82.90
610;DHT22;292;48.800;9.216;2023-01-05T08:03:57;13.00;82.50
610;DHT22;292;48.800;9.216;2023-01-05T08:06:25;13.00;82.10
610;DHT22;292;48.800;9.216;2023-01-05T08:08:52;13.00;81.60
610;DHT22;292;48.800;9.216;2023-01-05T08:11:19;13.00;81.40
610;DHT22;292;48.800;9.216;2023-01-05T08:13:47;13.10;81.00
610;DHT22;292;48.800;9.216;2023-01-05T08:16:27;13.10;80.70
610;DHT22;292;48.800;9.216;2023-01-05T08:18:55;13.10;80.40
610;DHT22;292;48.800;9.216;2023-01-05T08:21:22;13.10;80.10
610;DHT22;292;48.800;9.216;2023-01-05T08:23:54;13.10;79.90
610;DHT22;292;48.800;9.216;2023-01-05T08:26:23;13.10;79.30
610;DHT22;292;48.800;9.216;2023-01-05T08:28:51;13.10;78.80
610;DHT22;292;48.800;9.216;2023-01-05T08:31:21;13.10;78.60
610;DHT22;292;48.800;9.216;2023-01-05T08:33:48;13.10;78.30
610;DHT22;292;48.800;9.216;2023-01-05T08:36:17;13.20;78.00
610;DHT22;292;48.800;9.216;2023-01-05T08:38:44;13.20;77.80
610;DHT22;292;48.800;9.216;2023-01-05T08:41:17;13.10;77.50
610;DHT22;292;48.800;9.216;2023-01-05T08:43:49;13.20;77.40
610;DHT22;292;48.800;9.216;2023-01-05T08:46:16;13.20;77.40
610;DHT22;292;48.800;9.216;2023-01-05T08:48:47;13.20;77.30
610;DHT22;292;48.800;9.216;2023-01-05T08:51:14;13.20;77.10
610;DHT22;292;48.800;9.216;2023-01-05T08:53:41;13.20;77.00
610;DHT22;292;48.800;9.216;2023-01-05T08:56:10;13.20;76.80
610;DHT22;292;48.800;9.216;2023-01-05T08:58:39;13.20;76.50
610;DHT22;292;48.800;9.216;2023-01-05T09:01:06;13.20;75.70
610;DHT22;292;48.800;9.216;2023-01-05T09:03:33;13.20;75.00
610;DHT22;292;48.800;9.216;2023-01-05T09:06:00;13.20;74.20
610;DHT22;292;48.800;9.216;2023-01-05T09:08:28;13.30;74.10
610;DHT22;292;48.800;9.216;2023-01-05T09:11:05;13.30;73.80
610;DHT22;292;48.800;9.216;2023-01-05T09:13:32;13.30;73.40
610;DHT22;292;48.800;9.216;2023-01-05T09:16:06;13.30;72.80
610;DHT22;292;48.800;9.216;2023-01-05T09:18:33;13.30;72.20
610;DHT22;292;48.800;9.216;2023-01-05T09:21:00;13.30;71.30
610;DHT22;292;48.800;9.216;2023-01-05T09:23:27;13.30;70.90
610;DHT22;292;48.800;9.216;2023-01-05T09:25:54;13.30;70.50
610;DHT22;292;48.800;9.216;2023-01-05T09:28:21;13.40;70.20
610;DHT22;292;48.800;9.216;2023-01-05T09:30:48;13.40;69.60
610;DHT22;292;48.800;9.216;2023-01-05T09:33:16;13.40;68.90
610;DHT22;292;48.800;9.216;2023-01-05T09:35:43;13.40;68.30
610;DHT22;292;48.800;9.216;2023-01-05T09:38:22;13.40;67.90
610;DHT22;292;48.800;9.216;2023-01-05T09:40:57;13.40;67.60
610;DHT22;292;48.800;9.216;2023-01-05T09:43:32;13.40;67.70
610;DHT22;292;48.800;9.216;2023-01-05T09:46:00;13.40;67.70
610;DHT22;292;48.800;9.216;2023-01-05T09:48:34;13.40;67.60
610;DHT22;292;48.800;9.216;2023-01-05T09:51:02;13.40;67.50
610;DHT22;292;48.800;9.216;2023-01-05T09:53:29;13.50;67.20
610;DHT22;292;48.800;9.216;2023-01-05T09:55:57;13.50;66.90
610;DHT22;292;48.800;9.216;2023-01-05T09:58:26;13.50;66.60
610;DHT22;292;48.800;9.216;2023-01-05T10:01:03;13.50;66.40
610;DHT22;292;48.800;9.216;2023-01-05T10:03:38;13.50;66.30
610;DHT22;292;48.800;9.216;2023-01-05T10:06:11;13.50;66.20
610;DHT22;292;48.800;9.216;2023-01-05T10:08:41;13.50;66.30
610;DHT22;292;48.800;9.216;2023-01-05T10:11:12;13.50;66.30
610;DHT22;292;48.800;9.216;2023-01-05T10:14:01;13.50;66.30
610;DHT22;292;48.800;9.216;2023-01-05T10:16:31;13.50;66.20
610;DHT22;292;48.800;9.216;2023-01-05T10:19:01;13.50;66.20
610;DHT22;292;48.800;9.216;2023-01-05T10:21:36;13.50;66.20
610;DHT22;292;48.800;9.216;2023-01-05T10:24:18;13.50;66.20
610;DHT22;292;48.800;9.216;2023-01-05T10:26:52;13.50;66.30
610;DHT22;292;48.800;9.216;2023-01-05T10:29:26;13.50;66.30
610;DHT22;292;48.800;9.216;2023-01-05T10:32:04;13.50;66.40
610;DHT22;292;48.800;9.216;2023-01-05T10:34:50;13.50;66.40
610;DHT22;292;48.800;9.216;2023-01-05T10:37:35;13.60;66.30
610;DHT22;292;48.800;9.216;2023-01-05T10:40:13;13.60;66.00
610;DHT22;292;48.800;9.216;2023-01-05T10:42:50;13.60;65.90
610;DHT22;292;48.800;9.216;2023-01-05T10:45:20;13.60;65.90
610;DHT22;292;48.800;9.216;2023-01-05T10:47:47;13.60;66.00
610;DHT22;292;48.800;9.216;2023-01-05T10:50:26;13.60;65.30
610;DHT22;292;48.800;9.216;2023-01-05T10:52:55;13.70;65.30
610;DHT22;292;48.800;9.216;2023-01-05T10:55:25;13.70;65.10
610;DHT22;292;48.800;9.216;2023-01-05T10:57:53;13.70;64.90
610;DHT22;292;48.800;9.216;2023-01-05T11:00:21;13.70;64.70
610;DHT22;292;48.800;9.216;2023-01-05T11:03:04;13.70;64.60
610;DHT22;292;48.800;9.216;2023-01-05T11:05:41;13.70;64.40
610;DHT22;292;48.800;9.216;2023-01-05T11:08:15;13.70;64.00
610;DHT22;292;48.800;9.216;2023-01-05T11:10:49;13.70;63.60
610;DHT22;292;48.800;9.216;2023-01-05T11:13:27;13.70;63.40
610;DHT22;292;48.800;9.216;2023-01-05T11:15:58;13.70;63.60
610;DHT22;292;48.800;9.216;2023-01-05T11:18:31;13.70;63.30
610;DHT22;292;48.800;9.216;2023-01-05T11:21:13;13.70;63.30
610;DHT22;292;48.800;9.216;2023-01-05T11:23:42;13.70;63.10
610;DHT22;292;48.800;9.216;2023-01-05T11:26:26;13.70;63.10
610;DHT22;292;48.800;9.216;2023-01-05T11:28:57;13.70;63.10
610;DHT22;292;48.800;9.216;2023-01-05T11:31:26;13.70;63.30
610;DHT22;292;48.800;9.216;2023-01-05T11:33:55;13.70;63.30
610;DHT22;292;48.800;9.216;2023-01-05T11:36:25;13.70;63.10
610;DHT22;292;48.800;9.216;2023-01-05T11:38:53;13.80;63.10
610;DHT22;292;48.800;9.216;2023-01-05T11:41:21;13.80;63.30
610;DHT22;292;48.800;9.216;2023-01-05T11:43:50;13.80;63.30
610;DHT22;292;48.800;9.216;2023-01-05T11:46:18;13.80;63.10
610;DHT22;292;48.800;9.216;2023-01-05T11:48:51;13.80;63.10
610;DHT22;292;48.800;9.216;2023-01-05T11:51:37;13.80;63.00
610;DHT22;292;48.800;9.216;2023-01-05T11:54:05;13.80;62.70
610;DHT22;292;48.800;9.216;2023-01-05T11:57:09;13.80;62.50
610;DHT22;292;48.800;9.216;2023-01-05T11:59:38;13.80;62.50
610;DHT22;292;48.800;9.216;2023-01-05T12:05:23;13.80;62.40
610;DHT22;292;48.800;9.216;2023-01-05T12:07:57;13.80;62.10
610;DHT22;292;48.800;9.216;2023-01-05T12:10:38;13.80;62.30
610;DHT22;292;48.800;9.216;2023-01-05T12:13:18;13.80;62.40
610;DHT22;292;48.800;9.216;2023-01-05T12:16:18;13.80;62.40
610;DHT22;292;48.800;9.216;2023-01-05T12:19:19;13.80;62.30
610;DHT22;292;48.800;9.216;2023-01-05T12:21:54;13.80;62.30
610;DHT22;292;48.800;9.216;2023-01-05T12:24:44;13.80;62.40
610;DHT22;292;48.800;9.216;2023-01-05T12:27:27;13.80;62.40
610;DHT22;292;48.800;9.216;2023-01-05T12:30:09;13.80;62.40
610;DHT22;292;48.800;9.216;2023-01-05T12:32:50;13.80;62.40
610;DHT22;292;48.800;9.216;2023-01-05T12:35:35;13.90;62.40
610;DHT22;292;48.800;9.216;2023-01-05T12:38:18;13.80;62.40
610;DHT22;292;48.800;9.216;2023-01-05T12:40:58;13.80;62.40
610;DHT22;292;48.800;9.216;2023-01-05T12:43:38;13.80;62.40
610;DHT22;292;48.800;9.216;2023-01-05T12:46:15;13.80;62.30
610;DHT22;292;48.800;9.216;2023-01-05T12:48:48;13.80;62.40
610;DHT22;292;48.800;9.216;2023-01-05T12:51:20;13.80;62.40
610;DHT22;292;48.800;9.216;2023-01-05T12:53:52;13.80;62.50
610;DHT22;292;48.800;9.216;2023-01-05T12:56:24;13.80;62.50
610;DHT22;292;48.800;9.216;2023-01-05T12:59:08;13.80;62.50
610;DHT22;292;48.800;9.216;2023-01-05T13:01:40;13.80;62.70
610;DHT22;292;48.800;9.216;2023-01-05T13:04:17;13.80;62.70
610;DHT22;292;48.800;9.216;2023-01-05T13:06:48;13.80;62.80
610;DHT22;292;48.800;9.216;2023-01-05T13:09:20;13.80;62.70
610;DHT22;292;48.800;9.216;2023-01-05T13:11:57;13.80;63.00
610;DHT22;292;48.800;9.216;2023-01-05T13:14:28;13.80;63.10
610;DHT22;292;48.800;9.216;2023-01-05T13:16:59;13.80;63.00
610;DHT22;292;48.800;9.216;2023-01-05T13:19:29;13.90;63.00
610;DHT22;292;48.800;9.216;2023-01-05T13:22:02;13.90;63.00
610;DHT22;292;48.800;9.216;2023-01-05T13:24:33;13.90;63.00
610;DHT22;292;48.800;9.216;2023-01-05T13:27:02;13.90;63.00
610;DHT22;292;48.800;9.216;2023-01-05T13:29:39;13.90;62.70
610;DHT22;292;48.800;9.216;2023-01-05T13:32:34;13.90;62.70
610;DHT22;292;48.800;9.216;2023-01-05T13:38:37;13.90;62.70
610;DHT22;292;48.800;9.216;2023-01-05T13:41:23;13.90;62.70
610;DHT22;292;48.800;9.216;2023-01-05T13:47:29;14.00;62.80
610;DHT22;292;48.800;9.216;2023-01-05T13:50:33;13.90;62.80
610;DHT22;292;48.800;9.216;2023-01-05T13:53:12;14.00;62.80
610;DHT22;292;48.800;9.216;2023-01-05T13:55:46;14.00;62.80
610;DHT22;292;48.800;9.216;2023-01-05T13:58:36;14.00;62.80
610;DHT22;292;48.800;9.216;2023-01-05T14:01:09;14.00;62.80
610;DHT22;292;48.800;9.216;2023-01-05T14:03:48;14.00;62.80
610;DHT22;292;48.800;9.216;2023-01-05T14:06:18;14.00;62.80
610;DHT22;292;48.800;9.216;2023-01-05T14:08:54;14.00;62.70
610;DHT22;292;48.800;9.216;2023-01-05T14:11:25;14.00;62.70
610;DHT22;292;48.800;9.216;2023-01-05T14:13:54;14.00;62.50
610;DHT22;292;48.800;9.216;2023-01-05T14:16:51;14.00;62.50
610;DHT22;292;48.800;9.216;2023-01-05T14:19:26;14.00;62.70
610;DHT22;292;48.800;9.216;2023-01-05T14:22:40;14.00;62.50
610;DHT22;292;48.800;9.216;2023-01-05T14:25:47;13.90;62.70
610;DHT22;292;48.800;9.216;2023-01-05T14:31:47;13.90;63.00
610;DHT22;292;48.800;9.216;2023-01-05T14:34:16;13.90;63.30
610;DHT22;292;48.800;9.216;2023-01-05T14:36:59;13.90;63.30
610;DHT22;292;48.800;9.216;2023-01-05T14:39:30;13.90;63.60
610;DHT22;292;48.800;9.216;2023-01-05T14:42:12;13.90;63.40
610;DHT22;292;48.800;9.216;2023-01-05T14:44:44;13.90;63.40
610;DHT22;292;48.800;9.216;2023-01-05T14:47:14;13.90;63.40
610;DHT22;292;48.800;9.216;2023-01-05T14:49:51;13.90;63.70
610;DHT22;292;48.800;9.216;2023-01-05T14:52:54;13.90;63.70
610;DHT22;292;48.800;9.216;2023-01-05T14:55:25;13.90;63.60
610;DHT22;292;48.800;9.216;2023-01-05T14:57:53;13.90;63.60
610;DHT22;292;48.800;9.216;2023-01-05T15:00:33;13.90;63.60
610;DHT22;292;48.800;9.216;2023-01-05T15:03:17;13.90;63.70
610;DHT22;292;48.800;9.216;2023-01-05T15:05:59;13.90;63.40
610;DHT22;292;48.800;9.216;2023-01-05T15:11:49;13.90;63.40
610;DHT22;292;48.800;9.216;2023-01-05T15:17:46;13.90;63.40
610;DHT22;292;48.800;9.216;2023-01-05T15:23:36;13.90;63.40
610;DHT22;292;48.800;9.216;2023-01-05T15:26:15;13.90;63.40
610;DHT22;292;48.800;9.216;2023-01-05T15:31:59;13.90;63.60
610;DHT22;292;48.800;9.216;2023-01-05T15:34:34;13.90;63.40
610;DHT22;292;48.800;9.216;2023-01-05T15:37:10;13.90;63.40
610;DHT22;292;48.800;9.216;2023-01-05T15:39:45;13.90;63.40
610;DHT22;292;48.800;9.216;2023-01-05T15:42:15;13.90;63.40
610;DHT22;292;48.800;9.216;2023-01-05T15:44:45;14.00;63.40
610;DHT22;292;48.800;9.216;2023-01-05T15:47:14;14.00;63.40
610;DHT22;292;48.800;9.216;2023-01-05T15:49:43;14.00;63.40
610;DHT22;292;48.800;9.216;2023-01-05T15:52:19;14.00;63.40
610;DHT22;292;48.800;9.216;2023-01-05T15:54:57;14.00;63.30
610;DHT22;292;48.800;9.216;2023-01-05T15:57:24;14.00;63.10
610;DHT22;292;48.800;9.216;2023-01-05T15:59:53;14.00;63.00
610;DHT22;292;48.800;9.216;2023-01-05T16:02:23;14.00;63.00
610;DHT22;292;48.800;9.216;2023-01-05T16:05:11;14.00;63.00
610;DHT22;292;48.800;9.216;2023-01-05T16:07:43;14.00;63.10
610;DHT22;292;48.800;9.216;2023-01-05T16:10:22;14.00;62.80
610;DHT22;292;48.800;9.216;2023-01-05T16:12:56;14.00;62.80
610;DHT22;292;48.800;9.216;2023-01-05T16:15:25;13.90;62.70
610;DHT22;292;48.800;9.216;2023-01-05T16:17:55;13.90;62.80
610;DHT22;292;48.800;9.216;2023-01-05T16:20:24;13.90;62.70
610;DHT22;292;48.800;9.216;2023-01-05T16:22:58;13.90;62.80
610;DHT22;292;48.800;9.216;2023-01-05T16:25:29;13.90;63.00
610;DHT22;292;48.800;9.216;2023-01-05T16:27:59;13.90;63.00
610;DHT22;292;48.800;9.216;2023-01-05T16:30:36;13.90;63.00
610;DHT22;292;48.800;9.216;2023-01-05T16:33:05;13.90;63.00
610;DHT22;292;48.800;9.216;2023-01-05T16:35:43;13.90;63.00
610;DHT22;292;48.800;9.216;2023-01-05T16:38:23;13.90;63.00
610;DHT22;292;48.800;9.216;2023-01-05T16:41:18;13.90;63.10
610;DHT22;292;48.800;9.216;2023-01-05T16:43:51;13.90;63.30
610;DHT22;292;48.800;9.216;2023-01-05T16:46:34;13.90;63.30
610;DHT22;292;48.800;9.216;2023-01-05T16:49:24;13.90;63.60
610;DHT22;292;48.800;9.216;2023-01-05T16:51:53;13.90;63.60
610;DHT22;292;48.800;9.216;2023-01-05T16:54:22;13.90;63.60
610;DHT22;292;48.800;9.216;2023-01-05T16:56:55;13.90;63.60
610;DHT22;292;48.800;9.216;2023-01-05T16:59:39;13.90;63.70
610;DHT22;292;48.800;9.216;2023-01-05T17:02:41;14.00;63.80
610;DHT22;292;48.800;9.216;2023-01-05T17:05:09;14.00;64.00
610;DHT22;292;48.800;9.216;2023-01-05T17:07:37;14.00;64.00
610;DHT22;292;48.800;9.216;2023-01-05T17:10:06;13.90;64.00
610;DHT22;292;48.800;9.216;2023-01-05T17:12:33;13.90;64.00
610;DHT22;292;48.800;9.216;2023-01-05T17:15:02;13.90;64.10
610;DHT22;292;48.800;9.216;2023-01-05T17:17:32;13.90;64.30
610;DHT22;292;48.800;9.216;2023-01-05T17:19:59;13.90;64.60
610;DHT22;292;48.800;9.216;2023-01-05T17:22:26;13.90;64.60
610;DHT22;292;48.800;9.216;2023-01-05T17:24:54;13.90;64.70
610;DHT22;292;48.800;9.216;2023-01-05T17:27:21;13.90;64.90
610;DHT22;292;48.800;9.216;2023-01-05T17:29:48;13.90;65.10
610;DHT22;292;48.800;9.216;2023-01-05T17:32:15;13.90;65.10
610;DHT22;292;48.800;9.216;2023-01-05T17:34:43;13.90;65.30
610;DHT22;292;48.800;9.216;2023-01-05T17:37:14;13.90;65.30
610;DHT22;292;48.800;9.216;2023-01-05T17:39:41;13.90;65.30
610;DHT22;292;48.800;9.216;2023-01-05T17:42:08;13.90;65.40